Time;durP1;ratioP1;P1;durP2;ratioP2;P2;SDS_P1;SDS_P2;PMS_P1;PMS_P2;Temp;Humidity;BMP_temperature;BMP_pressure;BME280_temperature;BME280_humidity;BME280_pressure;Samples;Min_cycle;Max_cycle;Signal;HPM_P1;HPM_P2
2023/07/02 00:00:09;;;;;;;16.67;6.18;;;17.20;99.90;;;;;;5073325;28;20036;-70
2023/07/02 00:02:38;;;;;;;17.30;6.50;;;17.20;99.90;;;;;;5054428;28;20391;-70
2023/07/02 00:05:04;;;;;;;18.40;6.40;;;17.10;99.90;;;;;;5071822;28;20025;-70
2023/07/02 00:07:31;;;;;;;22.13;7.30;;;17.10;99.90;;;;;;5073387;28;20441;-70
2023/07/02 00:09:56;;;;;;;13.77;6.93;;;17.10;99.90;;;;;;5072987;28;20017;-70
2023/07/02 00:12:22;;;;;;;18.98;6.80;;;17.10;99.90;;;;;;5073378;28;20032;-70
2023/07/02 00:14:47;;;;;;;16.70;7.00;;;17.10;99.90;;;;;;5073333;28;20024;-70
2023/07/02 00:17:13;;;;;;;16.75;6.63;;;17.00;99.90;;;;;;5073248;28;20039;-70
2023/07/02 00:19:41;;;;;;;14.90;6.63;;;17.00;99.90;;;;;;5073390;28;20060;-70
2023/07/02 00:22:07;;;;;;;12.98;6.53;;;17.00;99.90;;;;;;5072837;28;20382;-70
2023/07/02 00:24:33;;;;;;;19.88;6.75;;;17.00;99.90;;;;;;5073360;28;20021;-70
2023/07/02 00:27:01;;;;;;;16.83;7.13;;;17.00;99.90;;;;;;5072716;28;20037;-70
2023/07/02 00:29:27;;;;;;;18.85;7.05;;;17.00;99.90;;;;;;5073081;28;20020;-70
2023/07/02 00:31:53;;;;;;;14.18;6.60;;;17.00;99.90;;;;;;5072985;28;20382;-72
2023/07/02 00:34:19;;;;;;;16.88;6.82;;;17.00;99.90;;;;;;5073412;28;20024;-72
2023/07/02 00:36:45;;;;;;;19.48;7.50;;;17.10;99.90;;;;;;5072985;28;20024;-70
2023/07/02 00:39:14;;;;;;;20.20;7.32;;;17.10;99.90;;;;;;5072502;28;20090;-71
2023/07/02 00:41:41;;;;;;;17.55;7.07;;;17.10;99.90;;;;;;5072598;28;20025;-70
2023/07/02 00:44:08;;;;;;;18.63;7.47;;;17.10;99.90;;;;;;5072661;28;20074;-70
2023/07/02 00:46:40;;;;;;;18.27;7.85;;;17.20;99.90;;;;;;5072924;28;20119;-71
2023/07/02 00:49:08;;;;;;;17.10;7.97;;;17.20;99.90;;;;;;5072472;28;20031;-71
2023/07/02 00:51:34;;;;;;;22.10;9.15;;;17.20;99.90;;;;;;5071347;28;20089;-70
2023/07/02 00:54:01;;;;;;;17.88;6.65;;;17.30;99.90;;;;;;5072084;28;20120;-70
2023/07/02 00:56:26;;;;;;;17.75;6.95;;;17.30;99.90;;;;;;5072380;28;20025;-70
2023/07/02 00:58:58;;;;;;;15.48;5.38;;;17.20;99.90;;;;;;5071829;28;20555;-70
2023/07/02 01:01:25;;;;;;;16.73;5.77;;;17.00;99.90;;;;;;5070541;28;20074;-70
2023/07/02 01:04:01;;;;;;;15.13;6.30;;;16.80;99.90;;;;;;5072123;28;20258;-70
2023/07/02 01:06:30;;;;;;;16.88;6.10;;;16.60;99.90;;;;;;5072467;28;20042;-70
2023/07/02 01:09:01;;;;;;;17.17;5.55;;;16.30;99.90;;;;;;5071656;28;20082;-70
2023/07/02 01:11:50;;;;;;;14.80;4.68;;;16.20;99.90;;;;;;5072443;28;20111;-70
2023/07/02 01:14:26;;;;;;;16.33;5.57;;;16.00;99.90;;;;;;5072396;28;20474;-70
2023/07/02 01:16:54;;;;;;;16.63;6.03;;;15.80;99.90;;;;;;5071670;28;20055;-70
2023/07/02 01:19:41;;;;;;;18.40;4.97;;;15.60;99.90;;;;;;5070965;28;20025;-70
2023/07/02 01:22:07;;;;;;;14.20;6.07;;;15.50;99.90;;;;;;5071881;28;20425;-70
2023/07/02 01:24:33;;;;;;;18.00;5.82;;;15.50;99.90;;;;;;5071877;28;20024;-70
2023/07/02 01:27:01;;;;;;;17.67;5.80;;;15.40;99.90;;;;;;5071532;28;20036;-70
2023/07/02 01:29:29;;;;;;;14.98;5.28;;;15.30;99.90;;;;;;5072406;28;20031;-70
2023/07/02 01:31:55;;;;;;;13.82;5.47;;;15.30;99.90;;;;;;5072717;28;20056;-70
2023/07/02 01:34:21;;;;;;;17.98;5.57;;;15.30;99.90;;;;;;5072121;28;20063;-70
2023/07/02 01:36:46;;;;;;;10.13;5.53;;;15.20;99.90;;;;;;5070831;28;20020;-70
2023/07/02 01:39:12;;;;;;;15.07;6.55;;;15.20;99.90;;;;;;5071530;28;20027;-70
2023/07/02 01:41:44;;;;;;;14.00;5.35;;;15.10;99.90;;;;;;5071575;28;20107;-71
2023/07/02 01:44:10;;;;;;;16.45;5.72;;;15.10;99.90;;;;;;5071384;28;20016;-70
2023/07/02 01:46:35;;;;;;;17.58;5.47;;;15.10;99.90;;;;;;5071509;28;20040;-70
2023/07/02 01:49:01;;;;;;;14.23;5.80;;;15.00;99.90;;;;;;5070146;28;20029;-70
2023/07/02 01:51:26;;;;;;;19.33;7.30;;;15.00;99.90;;;;;;5070183;28;20078;-70
2023/07/02 01:53:52;;;;;;;18.55;6.35;;;15.00;99.90;;;;;;5069962;28;20025;-70
2023/07/02 01:56:17;;;;;;;15.82;6.10;;;15.00;99.90;;;;;;5071357;28;20025;-70
2023/07/02 01:58:43;;;;;;;14.93;6.32;;;14.90;99.90;;;;;;5067720;28;20367;-70
2023/07/02 02:01:08;;;;;;;20.13;5.90;;;14.90;99.90;;;;;;5071144;28;20370;-70
2023/07/02 02:03:34;;;;;;;17.90;6.15;;;14.80;99.90;;;;;;5071367;28;20025;-70
2023/07/02 02:05:59;;;;;;;20.73;7.28;;;14.80;99.90;;;;;;5070825;28;20035;-70
2023/07/02 02:08:25;;;;;;;16.40;5.72;;;14.70;99.90;;;;;;5071112;28;20434;-70
2023/07/02 02:10:50;;;;;;;15.95;5.70;;;14.60;99.90;;;;;;5070021;28;20055;-70
2023/07/02 02:13:16;;;;;;;16.77;5.28;;;14.60;99.90;;;;;;5071239;28;20024;-70
2023/07/02 02:15:41;;;;;;;13.95;6.07;;;14.60;99.90;;;;;;5070810;28;20022;-69
2023/07/02 02:18:07;;;;;;;19.15;8.00;;;14.60;99.90;;;;;;5070846;28;20024;-70
2023/07/02 02:20:33;;;;;;;19.08;6.40;;;14.50;99.90;;;;;;5071289;28;20035;-69
2023/07/02 02:22:58;;;;;;;16.02;6.10;;;14.50;99.90;;;;;;5070599;28;20360;-70
2023/07/02 02:25:24;;;;;;;15.38;6.65;;;14.50;99.90;;;;;;5070829;28;20415;-69
2023/07/02 02:27:49;;;;;;;18.98;6.18;;;14.40;99.90;;;;;;5070462;28;20397;-70
2023/07/02 02:30:15;;;;;;;18.10;6.88;;;14.30;99.90;;;;;;5071017;28;20016;-69
2023/07/02 02:32:40;;;;;;;16.60;6.78;;;14.30;99.90;;;;;;5070640;28;20024;-70
2023/07/02 02:35:07;;;;;;;15.35;7.20;;;14.30;99.90;;;;;;5070448;28;20055;-69
2023/07/02 02:37:34;;;;;;;17.23;7.13;;;14.30;99.90;;;;;;5071006;28;20032;-70
2023/07/02 02:40:00;;;;;;;17.30;6.47;;;14.30;99.90;;;;;;5070386;28;20060;-69
2023/07/02 02:42:26;;;;;;;19.95;7.53;;;14.30;99.90;;;;;;5070607;28;20060;-70
2023/07/02 02:44:51;;;;;;;13.65;6.30;;;14.30;99.90;;;;;;5070260;28;20039;-71
2023/07/02 02:47:17;;;;;;;22.40;6.65;;;14.40;99.90;;;;;;5070510;28;20033;-70
2023/07/02 02:49:42;;;;;;;16.17;6.75;;;14.40;99.90;;;;;;5070619;28;20024;-69
2023/07/02 02:52:08;;;;;;;15.88;7.10;;;14.40;99.90;;;;;;5070373;28;20481;-70
2023/07/02 02:54:33;;;;;;;13.63;6.63;;;14.40;99.90;;;;;;5070590;28;20016;-70
2023/07/02 02:56:59;;;;;;;17.95;7.55;;;14.40;99.90;;;;;;5063920;28;20158;-70
2023/07/02 02:59:24;;;;;;;21.63;7.50;;;14.40;99.90;;;;;;5070759;28;20032;-70
2023/07/02 03:01:51;;;;;;;19.35;6.85;;;14.40;99.90;;;;;;5070306;28;20029;-70
2023/07/02 03:04:16;;;;;;;18.48;6.40;;;14.40;99.90;;;;;;5070932;28;20024;-69
2023/07/02 03:06:42;;;;;;;20.00;7.30;;;14.30;99.90;;;;;;5070779;28;20384;-70
2023/07/02 03:09:08;;;;;;;16.55;6.63;;;14.30;99.90;;;;;;5069985;28;20040;-70
2023/07/02 03:11:33;;;;;;;18.95;6.63;;;14.30;99.90;;;;;;5070309;28;20133;-70
2023/07/02 03:13:58;;;;;;;16.52;6.78;;;14.30;99.90;;;;;;5070291;28;20142;-70
2023/07/02 03:16:24;;;;;;;14.98;6.45;;;14.30;99.90;;;;;;5070403;28;20036;-70
2023/07/02 03:18:50;;;;;;;15.40;6.93;;;14.30;99.90;;;;;;5070004;28;20136;-70
2023/07/02 03:21:16;;;;;;;14.88;6.25;;;14.40;99.90;;;;;;5070781;28;20056;-70
2023/07/02 03:23:41;;;;;;;18.70;6.35;;;14.40;99.90;;;;;;5074333;28;20493;-70
2023/07/02 03:26:07;;;;;;;17.88;6.50;;;14.50;99.90;;;;;;5072456;28;20045;-70
2023/07/02 03:28:34;;;;;;;16.35;5.95;;;14.50;99.90;;;;;;5074584;28;20103;-70
2023/07/02 03:31:00;;;;;;;16.45;6.50;;;14.60;99.90;;;;;;5073865;28;20420;-70
2023/07/02 03:33:25;;;;;;;17.35;5.88;;;14.60;99.90;;;;;;5074099;28;20103;-70
2023/07/02 03:35:51;;;;;;;16.50;5.82;;;14.70;99.90;;;;;;5074110;28;20067;-71
2023/07/02 03:38:16;;;;;;;20.05;5.75;;;14.70;99.90;;;;;;5072751;28;20025;-70
2023/07/02 03:40:42;;;;;;;17.27;6.13;;;14.70;99.90;;;;;;5074266;28;20152;-70
2023/07/02 03:43:07;;;;;;;20.48;6.50;;;14.70;99.90;;;;;;5073879;28;20024;-70
2023/07/02 03:45:33;;;;;;;18.38;5.78;;;14.70;99.90;;;;;;5074112;28;20028;-70
2023/07/02 03:48:00;;;;;;;14.15;5.55;;;14.70;99.90;;;;;;5073377;28;20451;-71
2023/07/02 03:50:26;;;;;;;15.93;6.13;;;14.70;99.90;;;;;;5072721;28;20020;-70
2023/07/02 03:52:51;;;;;;;17.42;5.68;;;14.70;99.90;;;;;;5073360;28;20028;-71
2023/07/02 03:55:19;;;;;;;14.63;6.03;;;14.70;99.90;;;;;;5069859;28;20070;-71
2023/07/02 03:57:45;;;;;;;18.35;5.68;;;14.70;99.90;;;;;;5063564;28;20029;-71
2023/07/02 04:00:11;;;;;;;19.67;6.95;;;14.70;99.90;;;;;;5072092;28;20031;-71
2023/07/02 04:02:36;;;;;;;18.48;6.03;;;14.70;99.90;;;;;;5073505;28;20021;-71
2023/07/02 04:05:02;;;;;;;26.92;7.57;;;14.60;99.90;;;;;;5073259;28;20497;-71
2023/07/02 04:07:28;;;;;;;19.17;6.32;;;14.70;99.90;;;;;;5073870;28;20040;-70
2023/07/02 04:09:54;;;;;;;19.30;7.68;;;14.60;99.90;;;;;;5074820;28;20055;-71
2023/07/02 04:12:20;;;;;;;14.32;5.97;;;14.60;99.90;;;;;;5073272;28;20091;-71
2023/07/02 04:14:45;;;;;;;22.23;7.50;;;14.60;99.90;;;;;;5073312;28;20039;-71
2023/07/02 04:17:11;;;;;;;20.42;6.68;;;14.60;99.90;;;;;;5072797;28;20032;-71
2023/07/02 04:19:36;;;;;;;24.02;7.15;;;14.60;99.90;;;;;;5073600;28;20027;-71
2023/07/02 04:22:02;;;;;;;15.02;5.90;;;14.60;99.90;;;;;;5072720;28;20028;-71
2023/07/02 04:24:28;;;;;;;19.30;6.32;;;14.60;99.90;;;;;;5073237;28;20065;-71
2023/07/02 04:26:53;;;;;;;17.55;6.53;;;14.60;99.90;;;;;;5072657;28;20051;-71
2023/07/02 04:29:19;;;;;;;19.02;6.45;;;14.60;99.90;;;;;;5073280;28;20021;-71
2023/07/02 04:31:45;;;;;;;23.38;7.03;;;14.70;99.90;;;;;;5072852;28;20083;-71
2023/07/02 04:34:10;;;;;;;21.25;6.95;;;14.70;99.90;;;;;;5072003;28;20057;-71
2023/07/02 04:36:36;;;;;;;17.30;6.55;;;14.70;99.90;;;;;;5072940;28;20075;-71
2023/07/02 04:39:01;;;;;;;17.30;7.10;;;14.70;99.90;;;;;;5071598;28;20024;-71
2023/07/02 04:41:27;;;;;;;26.30;7.88;;;14.80;99.90;;;;;;5072757;28;20024;-71
2023/07/02 04:43:53;;;;;;;23.15;6.65;;;14.80;99.90;;;;;;5072595;28;20028;-71
2023/07/02 04:46:18;;;;;;;19.40;6.53;;;14.80;99.90;;;;;;5072674;28;20033;-71
2023/07/02 04:48:44;;;;;;;23.13;6.30;;;14.80;99.90;;;;;;5073134;28;20027;-71
2023/07/02 04:51:09;;;;;;;20.67;6.95;;;14.80;99.90;;;;;;5072496;28;20019;-71
2023/07/02 04:53:37;;;;;;;22.67;7.28;;;14.80;99.90;;;;;;5072591;28;20027;-71
2023/07/02 04:56:03;;;;;;;26.38;7.88;;;14.80;99.90;;;;;;5072352;28;20024;-70
2023/07/02 04:58:28;;;;;;;20.38;6.63;;;14.90;99.90;;;;;;5072578;28;20078;-70
2023/07/02 05:00:54;;;;;;;24.55;6.90;;;15.10;99.90;;;;;;5071773;28;20044;-70
2023/07/02 05:03:19;;;;;;;25.95;8.00;;;15.50;99.90;;;;;;5072598;28;20058;-70
2023/07/02 05:05:45;;;;;;;23.10;7.57;;;15.90;99.90;;;;;;5072424;28;20040;-70
2023/07/02 05:08:10;;;;;;;21.55;7.50;;;16.20;99.90;;;;;;5072028;28;20390;-71
2023/07/02 05:10:36;;;;;;;18.70;6.25;;;16.60;99.90;;;;;;5072172;28;20029;-70
2023/07/02 05:13:01;;;;;;;17.08;7.25;;;16.90;99.90;;;;;;5072084;28;20028;-70
2023/07/02 05:15:27;;;;;;;20.30;7.53;;;17.00;99.90;;;;;;5072022;28;20016;-70
2023/07/02 05:17:53;;;;;;;22.52;7.32;;;17.00;99.90;;;;;;5071717;28;20063;-70
2023/07/02 05:20:18;;;;;;;20.17;7.35;;;17.00;99.90;;;;;;5072386;28;20029;-70
2023/07/02 05:22:44;;;;;;;18.52;7.00;;;17.00;99.90;;;;;;5072209;28;20089;-70
2023/07/02 05:25:09;;;;;;;16.85;6.90;;;17.00;99.90;;;;;;5071623;28;20379;-70
2023/07/02 05:27:35;;;;;;;17.63;7.00;;;16.90;99.90;;;;;;5071912;28;20040;-70
2023/07/02 05:30:00;;;;;;;16.02;6.05;;;16.90;99.90;;;;;;5071655;28;20020;-70
2023/07/02 05:32:26;;;;;;;20.83;6.95;;;16.80;99.90;;;;;;5071661;28;20037;-70
2023/07/02 05:34:52;;;;;;;12.95;6.47;;;16.90;99.90;;;;;;5071550;28;20407;-70
2023/07/02 05:37:17;;;;;;;24.75;7.80;;;16.90;99.90;;;;;;5071870;28;20477;-70
2023/07/02 05:39:43;;;;;;;22.30;7.50;;;16.80;99.90;;;;;;5071944;28;20028;-70
2023/07/02 05:42:08;;;;;;;22.00;7.47;;;16.70;99.90;;;;;;5071011;28;20142;-70
2023/07/02 05:44:34;;;;;;;23.05;7.55;;;16.70;99.90;;;;;;5071053;28;20027;-70
2023/07/02 05:46:59;;;;;;;20.20;7.20;;;16.70;99.90;;;;;;5070573;28;20036;-70
2023/07/02 05:49:26;;;;;;;22.25;6.65;;;16.70;99.90;;;;;;5071695;28;20481;-70
2023/07/02 05:51:51;;;;;;;20.75;8.30;;;16.80;99.90;;;;;;5071229;28;20040;-70
2023/07/02 05:54:17;;;;;;;22.90;7.82;;;16.80;99.90;;;;;;5052642;28;20025;-70
2023/07/02 05:56:43;;;;;;;19.17;6.75;;;16.90;99.90;;;;;;5064491;28;20063;-70
2023/07/02 05:59:08;;;;;;;18.95;6.82;;;16.90;99.90;;;;;;5069962;28;20028;-70
2023/07/02 06:01:34;;;;;;;20.17;8.02;;;16.90;99.90;;;;;;5071385;28;20032;-70
2023/07/02 06:03:59;;;;;;;23.25;6.68;;;17.00;99.90;;;;;;5069606;28;20044;-70
2023/07/02 06:06:25;;;;;;;18.48;6.63;;;17.00;99.90;;;;;;5071394;28;20482;-71
2023/07/02 06:08:51;;;;;;;21.95;7.43;;;17.10;99.90;;;;;;5069688;28;20032;-70
2023/07/02 06:11:16;;;;;;;22.38;7.32;;;17.10;99.90;;;;;;5071188;28;20036;-70
2023/07/02 06:13:42;;;;;;;15.70;6.20;;;17.10;99.90;;;;;;5071138;28;20028;-70
2023/07/02 06:16:08;;;;;;;24.42;8.18;;;17.20;99.90;;;;;;5070810;28;20054;-70
2023/07/02 06:18:33;;;;;;;20.42;6.97;;;17.20;99.90;;;;;;5070792;28;20024;-70
2023/07/02 06:20:59;;;;;;;20.23;6.53;;;17.30;99.90;;;;;;5070631;28;20025;-70
2023/07/02 06:23:25;;;;;;;18.25;6.63;;;17.30;99.90;;;;;;5071145;28;20039;-70
2023/07/02 06:25:52;;;;;;;17.33;5.95;;;17.40;99.90;;;;;;5070149;28;20048;-70
2023/07/02 06:28:18;;;;;;;19.17;5.88;;;17.40;99.90;;;;;;5070978;28;20052;-71
2023/07/02 06:30:44;;;;;;;22.35;7.10;;;17.60;99.90;;;;;;5071007;28;20017;-70
2023/07/02 06:33:10;;;;;;;20.05;7.15;;;17.60;99.90;;;;;;5070161;28;20359;-71
2023/07/02 06:35:35;;;;;;;18.98;6.68;;;17.60;99.90;;;;;;5071002;28;20039;-70
2023/07/02 06:38:01;;;;;;;20.70;5.97;;;17.70;99.90;;;;;;5070391;28;20420;-70
2023/07/02 06:40:26;;;;;;;17.75;6.20;;;17.70;99.90;;;;;;5071484;28;20027;-70
2023/07/02 06:42:52;;;;;;;20.13;5.63;;;17.70;99.90;;;;;;5070243;28;20478;-70
2023/07/02 06:45:17;;;;;;;20.88;6.40;;;17.80;99.90;;;;;;5072891;28;20504;-70
2023/07/02 06:47:43;;;;;;;14.88;5.65;;;17.90;99.90;;;;;;5070604;28;20070;-70
2023/07/02 06:50:09;;;;;;;19.52;6.15;;;17.90;99.90;;;;;;5070180;28;20029;-70
2023/07/02 06:52:34;;;;;;;16.80;6.10;;;18.00;99.90;;;;;;5054857;28;20035;-70
2023/07/02 06:55:00;;;;;;;15.60;6.05;;;18.00;99.90;;;;;;5055457;28;20386;-70
2023/07/02 06:57:25;;;;;;;14.65;5.15;;;18.10;99.90;;;;;;5070518;28;20044;-70
2023/07/02 06:59:51;;;;;;;19.63;5.10;;;18.10;99.90;;;;;;5070585;28;20027;-70
2023/07/02 07:02:16;;;;;;;14.73;5.25;;;18.10;99.90;;;;;;5069074;28;20029;-70
2023/07/02 07:04:42;;;;;;;12.77;5.30;;;18.20;99.90;;;;;;5070772;28;20028;-70
2023/07/02 07:07:14;;;;;;;15.77;4.85;;;18.10;99.90;;;;;;5069944;28;20475;-70
2023/07/02 07:09:40;;;;;;;15.70;4.38;;;18.20;99.90;;;;;;5070607;28;20327;-70
2023/07/02 07:12:06;;;;;;;14.85;4.55;;;18.20;99.90;;;;;;5068875;28;20039;-70
2023/07/02 07:14:34;;;;;;;15.45;4.40;;;18.30;99.90;;;;;;5070622;28;20021;-70
2023/07/02 07:17:00;;;;;;;13.95;4.50;;;18.40;99.90;;;;;;5070308;28;20394;-70
2023/07/02 07:19:32;;;;;;;13.48;4.20;;;18.40;99.90;;;;;;5070960;28;20035;-71
2023/07/02 07:21:57;;;;;;;;;;;18.40;99.90;;;;;;5069714;28;20142;-70
2023/07/02 07:24:23;;;;;;;14.48;4.53;;;18.40;99.90;;;;;;5070053;28;19995;-71
2023/07/02 07:26:48;;;;;;;12.75;4.35;;;18.50;99.90;;;;;;5069954;28;20036;-70
2023/07/02 07:29:14;;;;;;;11.40;4.68;;;18.50;99.90;;;;;;5070288;28;20549;-70
2023/07/02 07:31:40;;;;;;;14.88;4.75;;;18.50;99.90;;;;;;5070251;28;20431;-70
2023/07/02 07:34:05;;;;;;;16.70;4.53;;;18.50;99.90;;;;;;5069923;28;20471;-70
2023/07/02 07:36:31;;;;;;;14.65;4.47;;;18.60;99.90;;;;;;5068918;28;20378;-70
2023/07/02 07:38:56;;;;;;;18.30;5.18;;;18.70;99.90;;;;;;5069965;28;20071;-70
2023/07/02 07:41:33;;;;;;;13.05;4.65;;;18.70;99.90;;;;;;5070304;28;20107;-72
2023/07/02 07:44:01;;;;;;;16.83;5.03;;;18.60;99.90;;;;;;5069879;28;20436;-71
2023/07/02 07:46:26;;;;;;;12.80;4.70;;;18.50;99.90;;;;;;5070199;28;20089;-71
2023/07/02 07:48:53;;;;;;;15.38;4.65;;;18.30;99.90;;;;;;5069860;28;20466;-71
2023/07/02 07:51:18;;;;;;;16.17;4.72;;;18.10;99.90;;;;;;5052988;28;20029;-70
2023/07/02 07:53:44;;;;;;;17.63;4.93;;;18.00;99.90;;;;;;5068783;28;20017;-70
2023/07/02 07:56:09;;;;;;;18.63;5.47;;;17.90;99.90;;;;;;5069496;28;20025;-71
2023/07/02 07:58:35;;;;;;;13.10;4.32;;;17.80;99.90;;;;;;5069637;28;20478;-71
2023/07/02 08:01:01;;;;;;;13.85;5.22;;;17.80;99.90;;;;;;5069963;28;20063;-71
2023/07/02 08:03:26;;;;;;;12.50;4.90;;;18.00;99.90;;;;;;5070052;28;20104;-71
2023/07/02 08:05:52;;;;;;;16.10;4.03;;;18.10;99.90;;;;;;5069790;28;20028;-71
2023/07/02 08:08:17;;;;;;;11.50;4.85;;;18.10;99.90;;;;;;5070182;28;20037;-71
2023/07/02 08:10:43;;;;;;;14.05;5.10;;;18.20;99.90;;;;;;5073452;28;20032;-71
2023/07/02 08:13:08;;;;;;;12.68;4.20;;;18.10;99.90;;;;;;5073454;28;20039;-71
2023/07/02 08:15:34;;;;;;;15.95;5.22;;;18.20;99.90;;;;;;5073172;28;20040;-71
2023/07/02 08:18:00;;;;;;;13.13;3.95;;;18.30;99.90;;;;;;5073254;28;20029;-71
2023/07/02 08:20:25;;;;;;;12.55;4.63;;;18.40;99.90;;;;;;5073270;28;20028;-71
2023/07/02 08:22:51;;;;;;;15.93;4.47;;;18.60;99.90;;;;;;5072635;28;20402;-71
2023/07/02 08:25:17;;;;;;;14.02;4.70;;;18.70;99.90;;;;;;5073027;28;20045;-71
2023/07/02 08:27:43;;;;;;;10.90;3.97;;;18.80;99.90;;;;;;5073272;28;20058;-71
2023/07/02 08:30:09;;;;;;;13.73;3.92;;;18.80;99.90;;;;;;5072696;28;20538;-71
2023/07/02 08:32:35;;;;;;;11.48;4.55;;;18.80;99.90;;;;;;5073118;28;20047;-71
2023/07/02 08:35:00;;;;;;;10.15;3.95;;;18.80;99.90;;;;;;5072917;28;20074;-71
2023/07/02 08:37:26;;;;;;;11.70;3.45;;;18.70;99.90;;;;;;5072840;28;20390;-70
2023/07/02 08:39:51;;;;;;;12.70;3.80;;;18.60;99.30;;;;;;5072640;28;20025;-71
2023/07/02 08:42:18;;;;;;;11.68;4.07;;;18.50;99.00;;;;;;5072615;28;20380;-71
2023/07/02 08:44:47;;;;;;;9.95;3.70;;;18.50;99.10;;;;;;5072914;28;20103;-71
2023/07/02 08:47:13;;;;;;;10.18;3.63;;;18.50;99.30;;;;;;5072622;28;20039;-71
2023/07/02 08:49:38;;;;;;;9.18;3.60;;;18.50;99.20;;;;;;5058210;28;20390;-71
2023/07/02 08:52:04;;;;;;;11.65;3.08;;;18.50;99.20;;;;;;5068852;28;20055;-71
2023/07/02 08:54:30;;;;;;;10.95;4.07;;;18.50;99.30;;;;;;5072979;28;20028;-70
2023/07/02 08:56:56;;;;;;;8.30;3.28;;;18.50;99.30;;;;;;5072999;28;20100;-70
2023/07/02 08:59:21;;;;;;;10.15;3.58;;;18.50;99.10;;;;;;5072377;28;20025;-70
2023/07/02 09:01:51;;;;;;;10.82;3.60;;;18.50;99.10;;;;;;5073204;28;20036;-70
2023/07/02 09:04:21;;;;;;;12.88;4.72;;;18.60;99.30;;;;;;5072862;28;20012;-70
2023/07/02 09:06:48;;;;;;;13.77;3.80;;;18.60;99.30;;;;;;5072569;28;20036;-70
2023/07/02 09:09:14;;;;;;;10.60;3.63;;;18.70;98.90;;;;;;5072756;28;20070;-70
2023/07/02 09:11:51;;;;;;;12.50;3.75;;;18.80;98.70;;;;;;5072347;28;20020;-70
2023/07/02 09:14:30;;;;;;;12.80;4.32;;;19.00;98.70;;;;;;5072706;28;20514;-70
2023/07/02 09:17:02;;;;;;;11.30;3.80;;;19.00;98.30;;;;;;5072278;28;20202;-70
2023/07/02 09:19:28;;;;;;;14.75;4.53;;;19.00;98.20;;;;;;5073792;28;20454;-70
2023/07/02 09:21:59;;;;;;;13.10;4.13;;;19.20;98.20;;;;;;5072073;28;20085;-70
2023/07/02 09:24:25;;;;;;;15.40;4.30;;;19.30;97.90;;;;;;5071876;28;20093;-70
2023/07/02 09:26:55;;;;;;;16.85;5.18;;;19.40;98.30;;;;;;5071740;28;20064;-70
2023/07/02 09:29:32;;;;;;;9.27;3.70;;;19.70;98.40;;;;;;5071000;28;20591;-70
2023/07/02 09:31:59;;;;;;;10.32;3.55;;;20.00;97.80;;;;;;5071481;28;20073;-70
2023/07/02 09:34:31;;;;;;;9.63;3.53;;;20.10;96.40;;;;;;5072154;28;20028;-69
2023/07/02 09:36:58;;;;;;;11.55;3.90;;;19.90;95.80;;;;;;5071499;28;20021;-70
2023/07/02 09:39:34;;;;;;;11.05;3.20;;;19.60;95.40;;;;;;5071912;28;20035;-70
2023/07/02 09:42:02;;;;;;;11.93;3.97;;;19.50;95.70;;;;;;5071497;28;20032;-70
2023/07/02 09:44:31;;;;;;;13.73;4.07;;;19.40;95.60;;;;;;5071798;28;20028;-70
2023/07/02 09:47:07;;;;;;;10.27;3.78;;;19.30;95.50;;;;;;5067266;28;20435;-70
2023/07/02 09:49:41;;;;;;;9.55;4.07;;;19.30;95.50;;;;;;5063145;28;20052;-70
2023/07/02 09:52:09;;;;;;;12.77;3.65;;;19.20;95.20;;;;;;5070928;28;20374;-70
2023/07/02 09:54:35;;;;;;;11.32;3.42;;;19.20;95.50;;;;;;5071739;28;20335;-70
2023/07/02 09:57:01;;;;;;;11.60;3.80;;;19.30;95.30;;;;;;5071196;28;20063;-70
2023/07/02 09:59:27;;;;;;;9.75;3.28;;;19.50;95.20;;;;;;5071516;28;20028;-70
2023/07/02 10:01:53;;;;;;;11.82;3.70;;;19.70;94.60;;;;;;5071176;28;20363;-70
2023/07/02 10:04:20;;;;;;;8.50;3.63;;;19.90;94.30;;;;;;5071105;28;20473;-70
2023/07/02 10:06:54;;;;;;;11.07;4.03;;;20.00;94.00;;;;;;5071480;28;20438;-70
2023/07/02 10:09:21;;;;;;;10.52;3.40;;;20.00;93.20;;;;;;5071700;28;20082;-70
2023/07/02 10:11:47;;;;;;;9.10;3.22;;;20.10;93.10;;;;;;5070984;28;20466;-70
2023/07/02 10:14:13;;;;;;;12.68;3.60;;;20.30;92.10;;;;;;5071305;28;20074;-70
2023/07/02 10:16:54;;;;;;;9.55;3.35;;;20.30;91.40;;;;;;5070934;28;20029;-70
2023/07/02 10:19:20;;;;;;;7.88;2.88;;;20.30;90.00;;;;;;5071221;28;20024;-70
2023/07/02 10:21:59;;;;;;;10.52;3.28;;;20.20;90.00;;;;;;5071520;28;20029;-70
2023/07/02 10:24:25;;;;;;;9.15;3.20;;;20.30;90.40;;;;;;5070878;28;20115;-70
2023/07/02 10:27:02;;;;;;;6.75;2.92;;;20.40;89.50;;;;;;5070812;28;20457;-70
2023/07/02 10:29:28;;;;;;;12.00;3.03;;;20.40;90.20;;;;;;5071065;28;20028;-70
2023/07/02 10:31:56;;;;;;;9.20;3.03;;;20.40;89.70;;;;;;5070106;28;20070;-71
2023/07/02 10:34:48;;;;;;;7.95;3.38;;;20.40;89.00;;;;;;5069466;28;20104;-70
2023/07/02 10:37:13;;;;;;;6.10;2.45;;;20.50;87.40;;;;;;5070869;28;20032;-70
2023/07/02 10:39:40;;;;;;;9.43;2.72;;;20.60;87.30;;;;;;5071027;28;20032;-70
2023/07/02 10:42:07;;;;;;;8.32;2.92;;;20.70;86.80;;;;;;5070752;28;20013;-70
2023/07/02 10:44:33;;;;;;;6.05;2.60;;;20.70;85.90;;;;;;5070907;28;20082;-70
2023/07/02 10:46:59;;;;;;;8.15;2.97;;;20.70;85.50;;;;;;5069456;28;20036;-70
2023/07/02 10:49:32;;;;;;;6.90;1.98;;;20.70;84.20;;;;;;5071187;28;20035;-70
2023/07/02 10:52:03;;;;;;;6.68;2.50;;;20.70;84.20;;;;;;5070724;28;20068;-70
2023/07/02 10:54:46;;;;;;;9.07;2.77;;;20.80;84.20;;;;;;5070905;28;20021;-70
2023/07/02 10:57:16;;;;;;;7.10;3.08;;;20.90;83.60;;;;;;5070520;28;20027;-70
2023/07/02 10:59:41;;;;;;;7.07;2.08;;;21.00;83.00;;;;;;5070862;28;20075;-70
2023/07/02 11:02:08;;;;;;;11.73;3.17;;;21.10;82.10;;;;;;5070369;28;20028;-70
2023/07/02 11:04:35;;;;;;;7.85;2.40;;;21.20;80.70;;;;;;5070919;28;20021;-70
2023/07/02 11:07:01;;;;;;;8.35;2.83;;;21.30;81.40;;;;;;5070177;28;20369;-70
2023/07/02 11:09:26;;;;;;;11.02;3.97;;;21.50;80.10;;;;;;5070490;28;20032;-70
2023/07/02 11:11:57;;;;;;;6.00;2.38;;;21.40;77.90;;;;;;5070587;28;20530;-70
2023/07/02 11:14:28;;;;;;;9.65;2.78;;;21.20;78.00;;;;;;5071024;28;20024;-72
2023/07/02 11:16:55;;;;;;;6.53;1.93;;;21.30;77.30;;;;;;5070519;28;20025;-70
2023/07/02 11:19:20;;;;;;;9.85;2.53;;;21.40;78.20;;;;;;5070799;28;20267;-70
2023/07/02 11:21:55;;;;;;;6.93;2.40;;;21.40;77.20;;;;;;5070567;28;20078;-70
2023/07/02 11:24:32;;;;;;;10.18;2.70;;;21.20;76.70;;;;;;5070356;28;20425;-70
2023/07/02 11:26:59;;;;;;;6.32;2.20;;;21.00;77.00;;;;;;5070053;28;20413;-70
2023/07/02 11:29:25;;;;;;;6.82;2.40;;;21.00;76.00;;;;;;5070717;28;20107;-70
2023/07/02 11:31:50;;;;;;;8.40;2.55;;;21.00;76.40;;;;;;5069770;28;20105;-70
2023/07/02 11:34:21;;;;;;;7.32;2.08;;;20.80;75.60;;;;;;5070601;28;20028;-70
2023/07/02 11:36:49;;;;;;;10.20;2.07;;;20.80;75.40;;;;;;5070654;28;20033;-70
2023/07/02 11:39:15;;;;;;;6.68;2.05;;;20.80;76.90;;;;;;5070249;28;20086;-70
2023/07/02 11:41:45;;;;;;;7.32;1.73;;;20.90;76.60;;;;;;5070858;28;20061;-70
2023/07/02 11:44:11;;;;;;;14.30;2.85;;;21.00;75.70;;;;;;5072571;28;20028;-70
2023/07/02 11:46:36;;;;;;;7.47;2.33;;;21.10;75.20;;;;;;5074147;28;20040;-70
2023/07/02 11:49:08;;;;;;;6.72;2.28;;;21.20;75.10;;;;;;5073688;28;20028;-70
2023/07/02 11:51:37;;;;;;;5.28;1.83;;;21.40;74.40;;;;;;5073955;28;20028;-70
2023/07/02 11:54:04;;;;;;;6.95;2.20;;;21.50;72.90;;;;;;5073622;28;20032;-70
2023/07/02 11:56:30;;;;;;;7.25;2.75;;;21.30;73.50;;;;;;5082153;28;20080;-70
2023/07/02 11:58:56;;;;;;;5.80;1.92;;;21.20;72.90;;;;;;5086254;28;20059;-70
2023/07/02 12:01:21;;;;;;;5.35;1.65;;;21.10;71.50;;;;;;5076397;28;20040;-70
2023/07/02 12:03:47;;;;;;;4.88;1.90;;;21.00;71.30;;;;;;5074057;28;20207;-70
2023/07/02 12:06:12;;;;;;;7.20;1.92;;;21.00;71.10;;;;;;5073331;28;20054;-70
2023/07/02 12:08:38;;;;;;;7.47;1.63;;;21.00;71.90;;;;;;5074209;28;20056;-70
2023/07/02 12:11:03;;;;;;;8.00;2.35;;;21.20;72.80;;;;;;5072127;28;20111;-70
2023/07/02 12:13:29;;;;;;;9.20;2.00;;;21.40;71.90;;;;;;5073524;28;20032;-70
2023/07/02 12:15:54;;;;;;;8.05;1.88;;;21.60;72.20;;;;;;5072385;28;20032;-69
2023/07/02 12:18:20;;;;;;;3.75;1.40;;;21.50;71.30;;;;;;5073849;28;20020;-70
2023/07/02 12:20:45;;;;;;;6.28;1.42;;;21.40;71.00;;;;;;5072515;28;20082;-70
2023/07/02 12:23:11;;;;;;;5.65;1.85;;;21.50;72.10;;;;;;5073196;28;20424;-70
2023/07/02 12:25:37;;;;;;;11.23;2.47;;;21.50;71.30;;;;;;5073779;28;20068;-71
2023/07/02 12:28:04;;;;;;;8.98;2.17;;;21.60;70.10;;;;;;5070545;28;20033;-70
2023/07/02 12:30:30;;;;;;;7.25;1.77;;;21.60;69.90;;;;;;5075702;28;20085;-70
2023/07/02 12:32:55;;;;;;;5.65;2.08;;;21.70;71.20;;;;;;5074443;28;20432;-71
2023/07/02 12:35:21;;;;;;;6.80;2.30;;;21.90;70.70;;;;;;5073760;28;20424;-71